Kanorado, KS (67741)

6:33 PM MDT on July 30, 2014 (GMT -0600)
Leonard Farms (KKSGOODL7) Elev 3799 ft | 39.52 °N, 101.93 °W | Change Station

Current weather conditions updated 10 seconds ago

Partly Cloudy
Partly Cloudy
69.3 °F
Feels Like 69.3 °F
N
1.1
Wind Variable Wind from NW
Gusts 2.5 mph

Tomorrow is forecast to be Much Warmer than today.

Today
High -- | Low -- °F
--% Chance of Precip.
Yesterday
High -- | Low -- °F
Precip. -- in
5:46 AM 8:02 PM
Waxing Crescent, 14% visible
Pressure 30.17 in
Visibility 10.0 miles
Clouds Few 3300 ft
Dew Point 57 °F
Humidity 66%
Rainfall 0.18 in
Snow Depth Not available.
UV 4 out of 12
Pollen .80 out of 12
Air Quality Not available.
Flu Activity Not available.
METAR KITR 302253Z AUTO 07004KT 10SM FEW033 20/11 A3028 RMK AO2 SLP216 T02000111

More Conditions Fewer Conditions

Pressure 30.17 in
Visibility 10.0 miles
Clouds Few 3300 ft
Dew Point 57 °F
Humidity 66%
Rainfall 0.18 in
Snow Depth Not available.
UV 4 out of 12
Pollen .80 out of 12
Air Quality Not available.
Flu Activity Not available.
METAR KITR 302253Z AUTO 07004KT 10SM FEW033 20/11 A3028 RMK AO2 SLP216 T02000111

More Conditions Fewer Conditions

10-Day Weather Forecast

Almanac

Astronomy

Jul. 30, 2014 Rise Set
Actual Time 5:46 AM MDT 8:02 PM MDT
Civil Twilight 5:16 AM MDT 8:32 PM MDT
Nautical Twilight 4:39 AM MDT 9:09 PM MDT
Astronomical Twilight 3:58 AM MDT 9:49 PM MDT
Moon 9:18 AM MDT (7/30) 9:47 PM MDT (7/30)
Length of Visible Light 15h 16m
Length of Day
14h 15m
Tomorrow will be 1m 54s shorter.
Waxing Crescent, 14% of the Moon is Illuminated
Today
Waxing Crescent
Aug 3
First Quarter
Aug 10
Full
Aug 17
Last Quarter
Aug 25
New

Today's Extremes

State Highs State Lows

Community

WunderPhotos

Upload Photos

1,739,259 photos uploaded!

Nearby

Snow Depth

Station Depth Elevation
No new snow has been reported.

Earthquake Activity

City Distance Mag. Time & Date
No recent earthquake activity has been reported nearby.
Minimum magnitude displayed is 2.5.

Coastal Water Temperatures

Place Temperature
No Stations Reporting

Nearby Weather Stations

Station Location Temp. Heat Index Dew Point Humidity Wind Precip. Elev Updated Type
Leonard Farms, Goodland, KS 69.3 °F - 57 °F 66% NW  at  1.1 mph 0.00 in / hr 3799 ft 6:33 PM MDT Rapid Fire
City of Gld Backyard Station, Goodland, KS 72.9 °F 76 °F 58 °F 59% NE  at  0.0 mph - / hr 3711 ft 6:28 PM MDT Normal
Burlington, CO 69.4 °F - 56 °F 62% ENE  at  0.0 mph 0.00 in / hr 4117 ft 6:26 PM MDT Normal
Beaver Creek Weather, Goodland, KS 70.1 °F 75 °F 59 °F 67% West  at  4.0 mph 0.00 in / hr 3450 ft 6:33 PM MDT Rapid Fire

Show More Stations Show Fewer Stations